Kitsissut

KL  EN  DA
ASIAQ
Weather Now GREENLAND SURVEY
Updated [WGT/WGST] Temperature [°C] Wind [m/s] Air pressure [hPa] Relative humidity [%] Precipitation [mm]
Present Wind chill Speed Max
24.09 03:00-2,3-11,113,4 ⇖16,5101888n/a
24.09 02:00-2,1-10,612,4 ⇖14,9101887n/a
24.09 01:00-2,0-10,111,3 ⇖13,4101982n/a
24.09 00:00-2,1-10,211,3 ⇖13,9101979n/a
23.09 23:00-2,1-10,211,3 ⇖14,4101977n/a
23.09 22:00-2,1-9,910,3 ⇖12,9101980n/a
23.09 21:00-2,3-10,210,3 ⇖12,9101980n/a
23.09 20:00-2,2-9,99,8 ⇖12,4101978n/a
23.09 19:00-2,3-10,210,3 ⇖12,4101978n/a
23.09 18:00-2,1-9,79,8 ⇖12,4101977n/a
23.09 17:00-2,1-9,69,3 ⇖13,9101979n/a
23.09 16:00-2,2-9,79,3 ⇖12,4101979n/a
23.09 15:00-2,3-9,89,3 ⇖12,4101980n/a
23.09 14:00-2,4-10,19,8 ⇖13,9101877n/a
23.09 13:00-2,4-10,09,3 ⇖12,4101879n/a
23.09 12:00-2,6-10,610,3 ⇖14,4101882n/a
23.09 11:00-2,5-10,410,3 ⇖12,9101882n/a
23.09 10:00-2,5-10,410,3 ⇖12,4101883n/a
23.09 09:00-2,6-9,67,7 ⇖11,3101784n/a
23.09 08:00-2,4-9,88,8 ⇖12,4101782n/a
23.09 07:00-2,4-8,05,1 ⇑8,8101780n/a
23.09 06:00-2,8-9,46,7 ⇖9,3101789n/a
23.09 05:00-2,5-6,63,1 ⇖4,6101787n/a
23.09 04:00-2,2-5,12,1 ⇑3,1101670n/a
23.09 03:00-2,1-6,13,1 ⇑5,1101665n/a
Position: (76.73333333,-73.12083333)

[Back]